Date,TemperatureHighF,TemperatureAvgF,TemperatureLowF,DewpointHighF,DewpointAvgF,DewpointLowF,HumidityHigh,HumidityAvg,HumidityLow,PressureMaxIn,PressureMinIn,WindSpeedMaxMPH,WindSpeedAvgMPH,GustSpeedMaxMPH,PrecipitationSumIn
2013-1-1,6,0,-8,-7,-10,-15,76,62,45,30.48,30.08,9,3,27,0.00
2013-1-2,8,2,-4,-6,-10,-16,69,57,44,30.48,30.38,8,3,27,0.00
2013-1-3,24,0,-19,-8,-18,-28,72,49,14,30.76,30.48,2,1,13,0.00
2013-1-4,33,15,-2,5,-4,-19,73,47,16,30.70,30.20,4,1,16,0.02
2013-1-5,27,20,6,-3,-11,-22,36,24,15,30.27,30.12,9,5,32,0.00
2013-1-6,39,16,-2,0,-11,-19,53,34,10,30.41,30.14,3,1,15,0.01
2013-1-7,34,18,2,-3,-10,-17,59,32,13,30.13,29.93,8,1,24,0.01
2013-1-8,28,20,4,10,2,-14,74,47,19,30.25,29.85,8,4,25,0.00
2013-1-9,38,19,5,7,2,-5,65,48,19,30.44,30.17,2,1,15,0.00
2013-1-10,36,18,2,6,-4,-10,70,42,14,30.15,29.53,3,1,20,0.00
2013-1-11,16,5,-7,9,-3,-17,84,69,56,29.85,29.15,9,2,24,0.00
2013-1-12,0,-10,-21,-15,-21,-30,69,57,39,30.28,29.85,6,2,17,0.00
2013-1-17,36,16,0,8,-1,-8,80,51,21,30.61,30.33,4,1,16,0.01
2013-1-18,29,22,14,-1,-6,-9,41,29,21,30.44,30.14,12,7,34,0.00
2013-1-19,36,24,15,-3,-8,-17,40,25,9,30.31,30.14,10,4,33,0.00
2013-1-20,32,24,16,2,-7,-20,46,27,12,30.19,30.06,9,5,30,0.00
2013-1-21,29,23,19,4,-2,-16,45,33,15,30.16,30.04,13,6,32,0.00
2013-1-22,34,26,22,-12,-15,-18,19,15,12,30.20,30.10,10,7,28,0.00
2013-1-23,44,28,14,-7,-15,-23,31,15,9,30.25,30.16,5,2,18,0.00
2013-1-24,34,31,22,20,8,-14,74,45,12,30.09,29.83,16,10,43,0.00
2013-1-25,36,28,18,22,19,13,87,71,58,30.01,29.90,11,3,36,0.00
2013-1-26,35,27,18,24,17,8,90,68,47,29.90,29.55,9,2,28,0.00
2013-1-27,34,24,8,22,14,2,89,67,43,29.66,29.52,9,4,26,0.12
2013-1-28,26,18,8,18,9,-1,86,68,52,29.63,29.44,6,2,22,0.00
2013-1-29,8,1,-4,1,-10,-15,76,60,43,30.11,29.49,9,5,33,0.00
2013-1-30,11,4,-4,6,-2,-14,82,75,60,30.30,30.06,15,6,41,0.00
2013-1-31,17,13,11,12,8,6,83,79,72,30.35,30.21,8,5,25,0.01
2013-2-1,18,15,13,10,8,6,79,74,69,30.33,30.16,10,6,33,0.00
2013-2-2,30,20,7,6,0,-9,70,41,24,30.42,30.26,11,6,29,0.03
2013-2-3,34,25,16,1,-8,-19,44,24,13,30.24,29.83,11,6,27,0.02
2013-2-4,30,21,15,6,-2,-11,60,36,23,29.97,29.81,11,5,27,0.00
2013-2-5,37,24,10,16,10,1,81,56,34,30.04,29.82,10,3,33,0.00
2013-2-6,31,24,14,15,11,7,83,59,37,29.82,29.69,5,2,16,0.01
2013-2-7,29,13,-4,7,-11,-24,74,41,9,30.18,29.82,6,2,21,0.03
2013-2-8,31,15,-5,15,2,-13,86,60,31,30.24,29.77,3,1,19,0.00
2013-2-9,19,13,4,15,7,-3,87,76,63,29.75,29.30,9,2,26,0.01
2013-2-10,14,6,-4,2,-4,-11,80,65,43,30.01,29.55,11,4,33,0.00
2013-2-11,11,3,-6,0,-5,-13,79,69,57,30.23,30.03,5,1,17,0.00
2013-2-12,20,8,-1,1,-7,-22,69,51,19,30.27,30.15,13,6,33,0.00
2013-2-13,20,15,7,8,3,-5,74,60,32,30.20,30.03,12,8,37,0.00
2013-2-14,19,13,9,6,3,0,76,62,45,30.15,30.01,9,5,25,0.00
2013-2-15,14,10,6,3,0,-2,76,66,52,30.47,30.16,12,8,40,0.00
2013-2-16,28,19,12,9,2,-6,65,48,31,30.45,30.04,13,8,33,0.01
2013-2-17,34,23,14,10,-7,-18,80,29,13,30.02,29.47,11,4,35,0.04
2013-2-18,15,7,-8,8,-9,-25,77,50,15,30.28,29.47,11,5,31,0.00
2013-2-19,27,11,-9,-2,-12,-24,60,36,17,30.35,29.88,3,1,12,0.03
2013-2-20,26,13,3,13,4,-5,85,68,39,29.87,29.51,3,0,12,0.01
2013-2-21,19,12,4,8,4,-3,84,68,57,29.83,29.54,10,4,26,0.00
2013-2-22,14,7,-1,4,-3,-7,75,65,49,30.05,29.82,9,3,31,0.01
2013-2-23,25,14,2,14,2,-8,72,59,41,29.99,29.64,12,5,33,0.00
2013-2-24,11,5,-12,4,-2,-19,83,75,65,30.15,29.58,3,1,12,0.00
2013-2-25,26,12,-14,-1,-8,-20,76,44,17,30.27,29.91,9,3,26,0.02
2013-2-26,15,8,-4,1,-4,-11,77,60,46,30.14,29.75,8,4,25,0.00
2013-2-27,14,5,-1,-2,-8,-12,66,57,36,30.42,30.16,8,3,20,0.00
2013-2-28,17,10,2,6,-3,-14,80,58,39,30.49,30.40,12,8,33,0.00
2013-3-1,22,17,11,12,9,5,81,72,59,30.44,30.34,16,12,41,0.00
2013-3-2,36,26,18,18,12,6,73,55,38,30.45,30.02,11,7,32,0.02
2013-3-3,33,28,22,19,12,2,86,54,31,29.99,29.55,14,6,39,0.00
2013-3-4,26,17,3,19,9,-10,87,72,50,30.10,29.53,8,3,28,0.09
2013-3-5,34,20,6,-6,-13,-20,53,25,13,30.34,30.10,9,5,26,0.01
2013-3-6,40,28,8,5,0,-9,55,31,19,30.16,29.78,8,2,29,0.04
2013-3-7,40,29,13,5,2,-4,58,33,15,29.80,29.69,11,4,31,0.00
2013-3-8,35,23,10,20,12,2,89,63,38,29.81,29.49,5,1,17,0.00
2013-3-9,25,17,3,19,11,-4,88,76,67,29.87,29.35,7,1,18,0.01
2013-3-10,26,16,2,7,0,-8,69,52,33,30.17,29.91,12,4,32,0.02
2013-3-11,27,21,15,14,9,0,83,60,44,30.11,29.94,13,7,34,0.01
2013-3-12,30,23,18,15,13,11,83,65,51,30.13,29.97,11,8,32,0.03
2013-3-13,38,28,18,16,13,9,71,54,34,30.25,30.08,11,6,35,0.00
2013-3-14,44,33,22,14,10,5,65,41,20,30.26,30.07,6,3,20,0.00
2013-3-15,45,36,23,16,14,11,65,40,28,30.07,29.73,13,6,40,0.00
2013-3-16,33,28,21,23,19,14,86,68,45,29.71,29.60,6,3,22,0.02
2013-3-17,28,20,13,18,12,4,87,72,56,29.72,29.51,10,4,33,0.08
2013-3-18,18,14,10,10,6,1,78,69,59,30.05,29.73,6,3,25,0.00
2013-3-19,27,17,-1,8,-5,-17,72,42,15,30.30,30.05,10,5,28,0.01
2013-3-20,36,24,-2,18,2,-24,73,43,14,30.29,29.80,11,8,29,0.01
2013-3-21,29,21,14,19,14,6,86,72,58,29.78,29.47,14,6,36,0.00
2013-3-22,26,17,11,10,-1,-8,79,48,26,29.76,29.61,14,5,29,0.02
2013-3-23,11,4,-3,7,-2,-9,83,75,64,30.20,29.61,2,0,10,0.00
2013-3-24,6,-1,-11,-3,-9,-18,76,67,57,30.39,30.20,6,2,24,0.00
2013-3-25,20,4,-4,-4,-10,-14,71,53,28,30.45,30.36,8,4,24,0.01
2013-3-26,35,23,8,15,8,-8,72,54,33,30.40,29.94,10,5,30,0.00
2013-3-27,36,26,14,15,12,6,76,56,36,29.97,29.83,8,2,22,0.01
2013-3-28,41,23,8,23,11,2,80,62,32,30.14,29.97,6,1,16,0.00
2013-3-29,38,26,12,25,16,7,85,67,45,30.13,30.02,9,3,27,0.01
2013-3-30,39,30,21,23,17,11,89,60,32,30.08,29.87,8,5,25,0.03
2013-3-31,42,26,7,13,8,1,85,52,21,30.00,29.94,10,3,23,0.06
2013-4-1,42,27,11,25,14,5,90,60,30,29.98,29.79,4,1,20,0.00
2013-4-2,32,25,21,23,20,18,91,82,67,29.88,29.68,3,0,14,0.06
2013-4-3,35,24,6,16,12,1,89,63,44,30.14,29.87,6,2,20,0.21
2013-4-4,44,31,15,19,14,8,73,53,27,30.14,29.93,7,2,17,0.00
2013-4-5,44,34,24,25,15,8,88,49,28,29.93,29.56,8,3,23,0.00
2013-4-6,39,30,23,21,15,7,77,55,30,29.73,29.61,11,6,27,0.07
2013-4-7,34,28,23,21,16,8,84,61,41,29.69,29.58,11,5,30,0.02
2013-4-8,41,30,16,26,16,9,91,60,29,29.62,29.21,6,2,23,0.01
2013-4-9,26,14,4,23,9,-1,89,79,70,29.79,29.24,2,1,9,0.13
2013-4-10,22,13,0,8,4,-6,82,66,53,29.99,29.80,12,5,34,0.00
2013-4-11,29,22,13,20,15,5,84,75,61,29.87,29.75,13,7,34,0.01
2013-4-12,31,22,11,20,13,4,84,68,41,29.91,29.74,9,2,22,0.01
2013-4-13,39,27,8,24,11,2,86,52,32,29.90,29.29,13,5,33,0.00
2013-4-14,27,20,14,24,13,8,90,75,57,29.62,29.22,6,4,30,0.17
2013-4-15,31,21,15,24,17,11,90,84,70,29.69,29.51,5,1,23,0.04
2013-4-16,38,23,12,25,16,7,89,78,40,29.71,29.54,4,1,21,0.01
2013-4-17,21,16,2,18,12,-4,89,84,75,29.83,29.46,1,0,5,0.00
2013-4-18,11,5,0,-2,-4,-8,78,64,53,30.37,29.84,15,8,38,0.00
2013-4-19,27,18,7,14,7,-2,70,63,51,30.40,30.03,14,8,35,0.01
2013-4-20,33,24,14,21,14,8,80,68,54,30.02,29.85,6,3,19,0.11
2013-4-21,35,27,20,20,14,10,78,59,37,29.98,29.88,10,5,26,0.03
2013-4-22,34,27,14,24,18,10,86,70,50,29.86,29.67,5,2,19,0.14
2013-4-23,20,13,7,11,6,0,83,75,58,30.17,29.74,8,2,28,0.11
2013-4-24,29,15,-3,11,2,-10,73,58,32,30.34,30.17,8,3,22,0.10
2013-4-25,43,26,2,15,6,-4,78,47,27,30.33,29.96,8,3,21,0.02
2013-4-26,42,29,13,15,8,3,70,45,21,30.18,29.94,4,1,14,0.00
2013-4-27,44,30,14,16,10,5,80,47,24,30.18,30.04,9,3,22,0.00
2013-4-28,49,37,23,24,14,5,72,41,25,30.04,29.74,10,3,27,0.00
2013-4-29,50,41,28,23,17,11,70,40,23,29.75,29.40,11,5,33,0.00
2013-4-30,50,44,33,28,18,14,80,36,26,29.39,29.29,13,4,41,0.00
2013-5-1,32,21,10,28,18,6,93,86,81,30.26,29.36,4,1,11,0.06
2013-5-2,27,14,-3,8,2,-8,82,62,39,30.68,30.28,7,2,23,0.08
2013-5-3,45,28,7,19,6,-4,75,44,21,30.55,29.97,7,2,21,0.09
2013-5-4,41,26,11,26,17,7,90,71,41,30.07,29.88,4,1,20,0.02
2013-5-5,42,30,15,27,21,11,89,71,30,30.05,29.90,2,0,17,0.14
2013-5-6,26,24,21,21,20,18,86,85,83,29.93,29.89,0,0,1,0.00
2013-6-4,59,48,32,33,24,14,85,43,22,29.66,29.54,7,3,26,0.01
2013-6-5,57,42,28,38,26,17,94,60,22,29.82,29.62,9,2,30,0.00
2013-6-6,58,46,30,36,24,19,90,47,26,29.82,29.73,4,1,16,0.04
2013-6-7,57,43,29,38,30,26,95,65,32,29.81,29.67,6,2,20,0.04
2013-6-8,58,49,33,31,28,23,83,47,27,29.66,29.52,9,5,26,0.00
2013-6-9,68,52,33,32,26,23,82,39,19,29.73,29.63,8,4,27,0.00
2013-6-10,72,56,32,31,26,20,75,38,15,29.71,29.58,3,1,18,0.00
2013-6-11,67,56,38,28,19,13,59,27,13,29.64,29.49,7,2,28,0.00
2013-6-12,70,55,33,29,22,17,66,32,15,29.71,29.60,5,2,22,0.00
2013-6-13,68,52,34,36,27,23,74,43,19,29.74,29.62,5,1,25,0.02
2013-6-14,67,52,34,36,25,15,78,41,15,29.66,29.54,5,2,20,0.00
2013-6-15,64,48,26,29,21,10,84,42,14,29.82,29.62,4,1,22,0.00
2013-6-16,56,44,32,39,30,25,93,63,34,29.90,29.72,9,2,23,0.12
2013-6-17,62,44,30,37,30,22,92,64,23,29.97,29.85,5,1,22,0.04
2013-6-18,65,46,31,39,30,20,92,61,20,29.91,29.68,4,1,21,0.01
2013-6-19,68,48,26,34,19,8,84,41,10,29.71,29.57,4,1,21,0.01
2013-6-20,66,50,31,25,17,9,59,30,13,29.65,29.55,3,1,20,0.00
2013-6-21,68,51,29,23,18,13,68,34,13,29.67,29.59,3,1,20,0.00
2013-6-22,65,49,31,25,19,14,62,34,15,29.62,29.50,4,1,21,0.00
2013-6-23,66,46,25,32,22,17,74,45,15,29.68,29.60,3,1,17,0.00
2013-6-24,64,48,28,37,21,14,87,44,15,29.66,29.60,5,1,21,0.00
2013-6-25,64,51,35,31,25,16,77,37,26,29.77,29.52,9,3,33,0.00
2013-6-26,73,54,31,34,30,26,83,45,19,29.89,29.76,4,1,15,0.00
2013-6-27,75,57,37,36,30,26,70,41,17,29.89,29.80,3,1,14,0.00
2013-6-28,73,56,36,40,33,27,87,50,19,29.90,29.78,4,1,18,0.00
2013-6-29,70,50,36,45,37,32,90,67,29,29.89,29.76,4,1,19,0.03
2013-6-30,66,49,34,45,37,31,93,68,28,29.92,29.80,7,2,21,0.15
2013-7-1,64,47,32,46,37,28,94,72,26,29.95,29.88,3,1,16,0.10
2013-7-2,64,47,32,43,34,26,94,67,25,29.94,29.83,4,1,19,0.09
2013-7-3,66,49,32,40,33,26,94,60,25,29.86,29.69,6,2,24,0.01
2013-7-4,68,54,40,44,36,31,93,55,26,29.73,29.56,3,1,17,0.14
2013-7-5,63,51,38,52,42,37,95,74,45,29.65,29.52,5,2,20,0.10
2013-7-6,66,52,40,46,41,36,95,71,34,29.70,29.59,7,2,25,0.10
2013-7-7,67,52,38,48,41,36,94,70,40,29.78,29.67,5,1,20,0.04
2013-7-8,66,52,35,49,37,32,96,64,29,29.87,29.76,6,2,20,0.09
2013-7-9,69,53,36,42,36,32,87,58,27,29.93,29.87,4,1,19,0.00
2013-7-10,67,53,37,46,41,35,90,67,34,29.90,29.74,2,0,12,0.00
2013-7-11,70,55,35,48,39,32,94,61,27,29.82,29.60,3,1,14,0.01
2013-7-12,67,54,45,51,43,38,90,67,40,29.67,29.52,7,1,21,0.06
2013-7-13,68,54,42,51,44,39,92,71,38,29.77,29.66,6,1,24,0.06
2013-7-14,64,49,37,51,43,35,96,82,49,29.86,29.75,5,1,16,0.16
2013-7-15,58,48,39,48,45,38,96,90,67,29.85,29.73,3,0,15,0.13
2013-7-16,62,49,32,47,40,30,96,75,42,29.91,29.79,3,1,14,0.00
2013-7-17,66,49,33,52,42,31,96,79,50,29.92,29.82,2,0,12,0.04
2013-7-18,66,51,39,50,42,37,95,73,44,29.91,29.76,5,1,21,0.04
2013-7-19,62,50,42,49,43,39,94,78,51,29.86,29.74,2,0,12,0.04
2013-7-20,69,54,36,43,35,23,95,57,18,29.80,29.62,5,2,19,0.01
2013-7-21,70,52,32,39,31,24,93,53,19,29.72,29.63,6,2,21,0.01
2013-7-22,70,53,35,35,29,18,83,46,17,29.79,29.70,5,2,20,0.00
2013-7-23,72,55,33,40,26,18,74,40,16,29.82,29.74,4,1,18,0.00
2013-7-24,66,50,36,45,39,33,92,69,31,29.81,29.68,7,1,18,0.00
2013-7-25,62,48,37,47,40,35,96,79,44,29.98,29.77,7,2,23,0.31
2013-7-26,65,48,33,45,38,30,96,72,27,30.00,29.93,4,0,15,0.01
2013-7-27,63,48,34,49,39,32,95,76,41,29.97,29.68,4,1,17,0.09
2013-7-28,57,47,41,46,42,39,95,84,56,29.93,29.57,6,1,20,0.18
2013-7-29,59,49,39,45,39,36,92,70,47,30.61,29.70,7,2,25,0.01
2013-7-30,62,48,32,40,35,29,93,65,37,29.96,29.80,7,2,22,0.01
2013-7-31,66,50,32,42,36,29,90,62,29,30.00,29.83,2,0,13,0.00
2013-8-1,63,48,33,46,38,30,94,71,41,29.85,29.71,7,2,24,0.03
2013-8-2,65,54,44,44,39,32,82,58,31,29.70,29.62,8,3,23,0.00
2013-8-3,66,50,38,43,38,34,93,68,34,29.85,29.66,5,1,20,0.00
2013-8-4,66,49,34,48,40,32,95,73,37,29.83,29.75,5,1,16,0.05
2013-8-5,62,48,35,49,40,33,95,77,42,29.81,29.71,6,1,18,0.40
2013-8-6,64,48,36,43,37,31,96,70,32,29.78,29.68,5,2,20,0.02
2013-8-7,51,42,36,43,38,33,94,86,66,29.83,29.69,1,0,14,0.54
2013-8-8,58,43,32,41,35,30,94,77,38,29.90,29.77,3,1,15,0.04
2013-8-9,55,42,32,40,36,31,95,79,47,30.00,29.83,3,0,13,0.04
2013-8-10,62,46,29,38,30,25,94,62,24,30.03,29.89,6,2,19,0.01
2013-8-11,62,46,34,45,36,31,94,72,33,29.90,29.79,2,0,12,0.05
2013-8-12,59,45,32,42,36,30,94,72,39,29.91,29.85,5,1,17,0.00
2013-8-13,60,44,30,38,34,28,94,70,37,29.95,29.86,10,2,22,0.01
2013-8-14,60,45,30,35,30,25,93,61,28,29.98,29.92,7,2,22,0.01
2013-8-15,63,46,28,33,28,24,89,56,26,29.96,29.89,7,2,20,0.00
2013-8-16,67,49,29,37,28,23,84,51,22,29.96,29.89,4,1,14,0.00
2013-8-17,38,36,33,30,29,28,83,76,73,29.92,29.86,0,0,5,0.00
2013-8-18,65,47,33,46,37,29,92,71,32,29.89,29.75,3,1,15,0.11
2013-8-19,68,50,34,50,38,32,94,68,28,29.90,29.75,2,0,13,0.13
2013-8-20,68,52,34,46,36,28,90,60,25,29.80,29.69,3,1,13,0.00
2013-8-21,67,50,36,50,40,33,92,73,35,29.80,29.69,3,1,15,0.06
2013-8-22,62,50,39,50,43,37,93,80,51,29.82,29.74,1,0,9,0.07
2013-8-23,64,50,36,49,41,34,96,73,38,29.79,29.60,3,0,15,0.06
2013-8-24,62,48,35,48,40,33,94,75,45,29.80,29.65,5,1,19,0.12
2013-8-25,59,48,37,48,43,35,96,83,56,29.85,29.78,1,0,10,0.13
2013-8-26,67,52,42,48,44,40,96,78,48,29.85,29.72,4,1,14,0.08
2013-8-27,66,51,38,49,42,36,96,73,34,29.80,29.71,2,0,11,0.01
2013-8-28,69,52,36,47,40,29,94,69,23,29.82,29.70,2,0,11,0.35
2013-8-29,66,50,37,51,43,36,96,80,41,29.90,29.78,2,0,11,0.10
2013-8-30,65,52,43,50,44,41,92,78,47,29.89,29.74,5,1,17,0.19
2013-8-31,63,50,41,50,44,39,94,82,47,29.78,29.71,3,0,18,0.24
2013-9-1,61,49,40,49,44,39,96,84,50,29.81,29.72,2,0,13,0.16
2013-9-2,66,51,41,51,44,39,96,79,43,29.82,29.72,3,0,15,0.24
2013-9-3,67,51,38,51,43,36,96,78,39,29.83,29.73,6,1,18,0.37
2013-9-4,66,50,41,51,45,39,97,85,49,29.92,29.80,1,0,11,0.07
2013-9-5,68,52,39,49,42,33,95,74,31,29.91,29.79,3,0,11,0.00
2013-9-6,69,52,36,45,39,32,93,67,25,29.86,29.75,2,1,13,0.02
2013-9-7,68,52,36,45,39,34,93,66,30,29.76,29.67,2,0,13,0.00
2013-9-8,66,50,36,49,39,30,92,70,29,29.70,29.52,2,0,10,0.05
2013-9-9,63,50,36,44,40,34,93,71,44,29.58,29.48,2,0,20,0.09
2013-9-10,50,45,42,46,43,41,96,93,83,29.78,29.56,1,0,11,0.76
2013-9-11,51,45,43,47,44,42,97,94,84,29.82,29.74,1,0,7,0.80
2013-9-12,53,45,40,48,43,39,97,92,74,29.86,29.74,1,0,6,1.14
2013-9-13,54,45,38,47,41,36,97,87,61,29.74,29.55,2,0,11,0.60
2013-9-14,57,44,34,44,38,32,96,83,51,29.66,29.56,3,0,14,0.24
2013-9-15,46,39,33,43,37,31,97,94,83,29.95,29.65,1,0,10,1.10
2013-9-16,56,42,30,43,36,29,96,81,53,29.94,29.80,4,1,15,0.01
2013-9-17,60,44,30,41,33,28,95,71,36,29.87,29.63,6,1,17,0.01
2013-9-18,58,43,32,39,34,31,95,75,38,29.63,29.52,5,2,24,0.57
2013-9-19,54,40,28,40,31,25,96,75,42,29.86,29.62,6,1,20,0.01
2013-9-20,60,39,23,30,21,3,92,59,13,29.91,29.81,4,1,16,0.01
2013-9-21,59,43,27,36,29,23,88,62,31,29.86,29.61,7,1,23,0.00
2013-9-22,49,38,31,42,34,29,94,87,68,29.61,29.29,5,0,16,0.29
2013-9-23,38,32,28,29,25,21,92,76,58,29.97,29.23,17,9,42,0.07
2013-9-24,57,38,22,24,16,7,76,47,15,30.05,29.73,3,1,14,0.00
2013-9-25,59,47,29,25,18,10,72,33,19,29.72,29.25,8,2,35,0.00
2013-9-26,59,47,36,24,18,12,50,32,20,29.31,29.21,7,2,33,0.00
2013-9-27,40,32,21,34,24,14,90,74,48,29.70,29.25,8,2,31,0.08
2013-9-28,48,33,20,21,12,-4,77,44,21,30.03,29.69,9,4,32,0.00
2013-9-29,53,40,24,16,13,10,67,36,22,29.99,29.71,7,2,22,0.00
2013-9-30,60,48,36,31,23,15,55,39,28,29.76,29.49,9,4,29,0.00
2013-10-1,62,42,26,26,21,12,80,51,15,29.70,29.56,3,1,15,0.00
2013-10-2,57,40,23,24,19,11,81,50,17,29.78,29.64,2,1,12,0.00
2013-10-3,54,43,33,22,18,13,62,38,20,29.65,29.27,5,2,34,0.00
2013-10-4,39,23,14,26,12,6,86,63,45,30.00,29.21,8,4,28,0.01
2013-10-5,34,23,14,8,0,-19,71,42,9,30.36,30.01,11,7,32,0.00
2013-10-6,50,36,28,20,6,-13,50,30,15,30.32,30.15,9,3,26,0.00
2013-10-7,61,41,21,20,10,3,66,35,11,30.02,29.76,4,1,17,0.00
2013-10-8,56,41,27,22,16,7,76,42,15,29.74,29.48,4,1,20,0.00
2013-10-9,51,35,24,27,19,14,84,58,27,29.70,29.55,4,1,19,0.00
2013-10-10,37,29,24,30,23,14,88,76,59,29.69,29.31,12,2,33,0.02
2013-10-11,25,25,24,19,18,18,79,77,76,29.41,29.40,11,10,33,0.00
2013-10-12,43,28,12,17,13,5,85,58,22,29.99,29.87,3,1,15,0.00
2013-10-13,50,33,16,29,21,13,89,66,29,30.00,29.68,3,1,18,0.01
2013-10-14,34,28,22,24,18,13,83,68,43,29.88,29.49,12,4,31,0.07
2013-10-15,28,23,19,22,17,13,90,80,61,29.97,29.87,2,0,13,0.02
2013-10-16,29,21,10,17,13,5,89,73,52,30.00,29.91,8,3,24,0.00
2013-10-17,36,27,20,16,7,-3,73,44,25,30.01,29.78,7,4,29,0.00
2013-10-18,24,20,16,16,9,2,83,62,47,30.08,29.74,9,4,29,0.00
2013-10-19,38,27,17,16,11,4,69,51,38,30.14,29.86,8,4,26,0.01
2013-10-20,38,29,21,21,15,11,87,56,39,29.86,29.66,9,5,35,0.01
2013-10-21,36,26,13,16,12,6,85,58,38,30.10,29.80,8,3,25,0.04
2013-10-22,46,33,21,19,16,13,72,51,28,30.11,29.95,5,2,20,0.00
2013-10-23,49,33,20,18,14,10,77,50,21,30.02,29.92,5,1,17,0.00
2013-10-24,50,32,17,20,14,9,81,54,22,30.11,29.99,2,1,13,0.00
2013-10-25,46,34,21,25,18,14,76,55,28,30.10,29.94,4,1,14,0.00
2013-10-26,47,32,17,23,17,12,88,57,27,30.13,30.02,3,0,16,0.00
2013-10-27,44,33,22,19,15,10,76,50,27,30.03,29.70,7,2,24,0.00
2013-10-28,41,29,17,25,15,10,86,60,28,29.75,29.66,3,0,15,0.00
2013-10-29,38,30,26,24,14,8,91,53,28,29.72,29.50,4,1,21,0.00
2013-10-30,30,21,16,21,11,7,89,65,44,29.74,29.50,7,3,28,0.14
2013-10-31,24,19,15,14,11,8,78,70,55,29.94,29.73,12,7,33,0.00
2013-11-1,28,22,19,17,12,-6,85,68,23,30.18,29.91,9,5,29,0.01
2013-11-2,46,35,21,5,-4,-12,48,19,11,30.17,29.64,6,3,22,0.02
2013-11-3,40,32,18,19,9,-3,87,41,19,29.64,29.23,7,3,28,0.00
2013-11-4,34,23,11,14,8,1,86,54,30,29.75,29.43,5,1,19,0.05
2013-11-5,22,14,6,15,2,-17,86,61,30,30.23,29.64,6,2,21,0.01
2013-11-6,24,18,9,10,5,-17,70,57,27,30.46,30.22,10,5,29,0.00
2013-11-7,39,31,19,15,12,4,63,45,28,30.44,29.93,8,5,25,0.00
2013-11-8,39,33,26,14,10,4,53,39,28,29.92,29.64,10,4,39,0.00
2013-11-9,43,32,24,14,10,3,60,41,25,30.07,29.87,4,1,20,0.00
2013-11-10,44,30,20,15,11,7,70,48,27,30.13,30.06,5,1,18,0.00
2013-11-11,41,29,16,13,11,7,77,48,25,30.29,30.07,6,2,25,0.00
2013-11-12,46,27,12,12,8,-1,83,51,18,30.47,30.30,3,0,20,0.00
2013-11-13,42,33,27,13,6,-2,51,32,23,30.34,29.78,6,2,19,0.00
2013-11-14,36,28,21,18,6,-6,78,44,21,29.79,29.61,6,2,19,0.00
2013-11-15,35,26,18,21,10,-6,89,54,25,29.61,29.27,4,1,26,0.00
2013-11-16,28,21,16,18,13,10,88,73,50,29.37,29.21,11,6,34,0.02
2013-11-17,24,20,15,16,11,3,89,71,41,30.06,29.37,12,8,34,0.00
2013-11-18,43,25,12,11,4,-3,73,44,17,30.17,29.95,8,2,25,0.03
2013-11-19,35,24,8,19,11,0,75,59,32,29.97,29.67,13,5,33,0.00
2013-11-20,35,27,23,20,16,13,88,64,40,29.68,29.58,8,3,26,0.01
2013-11-21,30,23,14,23,20,11,91,88,76,30.05,29.61,1,0,7,0.01
2013-11-22,24,16,10,20,12,6,88,85,83,30.42,30.06,0,0,4,0.00
2013-11-23,20,16,11,16,12,7,88,84,79,30.45,30.24,0,0,6,0.00
2013-11-24,30,21,7,22,16,3,90,81,69,30.22,29.80,2,0,12,0.00
2013-11-25,27,19,7,17,12,2,83,72,58,30.17,29.79,4,1,28,0.00
2013-11-26,28,21,14,12,9,4,74,60,43,30.27,30.18,6,3,27,0.00
2013-11-27,36,23,11,13,7,3,73,51,33,30.18,30.00,5,2,20,0.02
2013-11-28,38,18,7,13,6,-1,77,62,33,30.20,30.05,1,0,10,0.08
2013-11-29,31,20,6,10,5,-2,77,54,36,30.23,30.15,9,3,24,0.00
2013-11-30,32,22,10,4,0,-6,69,38,26,30.20,30.08,7,2,24,0.00
2013-12-1,28,22,8,17,7,-2,77,54,36,30.12,29.90,12,8,37,0.00
2013-12-2,30,24,22,18,16,13,81,70,52,29.91,29.51,9,5,28,0.00
2013-12-3,25,23,20,20,17,11,87,77,57,29.50,29.17,2,0,18,0.00
2013-12-4,22,11,-5,18,5,-14,88,77,63,29.70,29.04,8,2,29,0.00
2013-12-5,10,-4,-22,-6,-16,-30,70,57,32,30.09,29.69,7,1,20,0.02
2013-12-6,2,-6,-19,-8,-16,-26,71,61,54,30.43,30.09,4,1,17,0.00
2013-12-7,11,5,-2,2,-4,-11,79,67,55,30.34,29.71,3,0,16,0.00
2013-12-8,5,-2,-16,-2,-10,-24,79,68,59,30.09,29.62,9,2,26,0.00
2013-12-9,4,-4,-9,-9,-16,-19,65,55,43,30.64,30.10,13,8,34,0.00
2013-12-10,19,12,4,5,0,-8,71,60,52,30.56,30.18,13,8,33,0.00
2013-12-11,24,18,10,2,-7,-14,68,36,21,30.36,30.20,8,5,24,0.00
2013-12-12,38,27,15,2,-6,-13,37,23,15,30.34,29.80,8,5,26,0.02
2013-12-13,25,19,11,5,3,-4,68,50,32,29.94,29.63,10,5,27,0.00
2013-12-14,21,15,8,10,2,-5,70,56,31,30.28,29.95,13,6,37,0.00
2013-12-15,31,22,15,11,9,4,71,56,31,30.27,30.18,14,9,39,0.00
2013-12-16,33,28,24,14,8,-2,59,44,30,30.19,30.11,10,7,30,0.00
2013-12-17,37,29,20,9,5,1,52,36,28,30.20,30.00,9,3,26,0.00
2013-12-18,38,33,27,12,3,1,50,29,22,29.99,29.41,12,7,33,0.00
2013-12-19,34,26,9,16,9,3,74,50,35,29.39,29.23,8,3,34,0.00
2013-12-20,27,18,10,15,10,1,82,69,50,29.50,29.39,4,1,15,0.00
2013-12-21,18,12,5,5,-1,-9,70,58,35,29.79,29.39,7,4,26,0.00
2013-12-22,14,8,3,4,-1,-8,79,66,54,30.25,29.84,10,6,33,0.00
2013-12-23,19,14,9,13,8,4,83,80,72,30.42,30.25,15,9,38,0.00
2013-12-24,23,17,7,17,8,-16,80,70,26,30.33,30.01,9,5,29,0.00
2013-12-25,24,17,8,0,-6,-15,61,36,26,30.45,30.22,10,5,31,0.00
2013-12-26,29,22,13,11,4,-14,67,47,20,30.40,30.23,9,4,29,0.00
2013-12-27,41,25,9,16,11,3,78,57,32,30.28,30.06,6,1,22,0.00
2013-12-28,32,24,15,17,13,8,87,62,44,30.05,29.81,5,2,19,0.00
2013-12-29,20,13,7,10,0,-11,84,59,27,30.13,29.82,8,3,32,0.10
2013-12-30,21,17,14,8,4,-3,75,56,40,30.26,30.10,11,8,32,0.00
2013-12-31,25,22,20,15,11,4,80,63,44,30.20,29.89,14,9,38,0.00
2014-1-1,20,14,9,15,9,1,86,79,61,30.23,29.83,11,6,30,0.00
2014-1-2,31,22,13,13,4,-10,63,46,29,30.33,29.96,13,8,34,0.02